createdAt,value
2022-12-06T00:02:21.668Z,3.05
2022-12-06T00:04:48.057Z,2.72
2022-12-06T00:07:14.442Z,2.75
2022-12-06T00:09:40.905Z,2.75
2022-12-06T00:12:07.297Z,2.45
2022-12-06T00:14:33.655Z,2.53
2022-12-06T00:17:00.060Z,2.88
2022-12-06T00:19:29.413Z,2.17
2022-12-06T00:21:55.812Z,2.47
2022-12-06T00:24:22.785Z,2.05
2022-12-06T00:26:49.956Z,2.13
2022-12-06T00:29:21.444Z,2.35
2022-12-06T00:31:48.458Z,2.13
2022-12-06T00:34:14.867Z,2.05
2022-12-06T00:36:41.823Z,1.98
2022-12-06T00:39:15.617Z,2.10
2022-12-06T00:41:42.497Z,2.20
2022-12-06T00:44:09.226Z,2.03
2022-12-06T00:46:35.881Z,1.70
2022-12-06T00:49:03.147Z,1.73
2022-12-06T00:51:30.608Z,1.90
2022-12-06T00:53:57.147Z,1.88
2022-12-06T00:56:23.507Z,1.80
2022-12-06T00:58:49.858Z,1.80
2022-12-06T01:01:18.084Z,1.80
2022-12-06T01:03:45.279Z,1.80
2022-12-06T01:06:15.890Z,1.80
2022-12-06T01:08:42.768Z,1.30
2022-12-06T01:11:09.246Z,1.52
2022-12-06T01:13:35.803Z,1.65
2022-12-06T01:16:09.349Z,1.40
2022-12-06T01:18:35.756Z,1.80
2022-12-06T01:21:09.449Z,1.90
2022-12-06T01:23:36.199Z,1.63
2022-12-06T01:26:03.646Z,1.90
2022-12-06T01:28:30.195Z,1.83
2022-12-06T01:30:56.654Z,2.00
2022-12-06T01:33:23.143Z,1.95
2022-12-06T01:35:49.660Z,2.00
2022-12-06T01:38:16.030Z,1.98
2022-12-06T01:40:46.720Z,1.92
2022-12-06T01:43:31.501Z,2.08
2022-12-06T01:45:59.417Z,2.00
2022-12-06T01:48:26.439Z,1.95
2022-12-06T01:50:55.729Z,2.00
2022-12-06T01:53:25.717Z,1.98
2022-12-06T01:55:52.774Z,2.28
2022-12-06T01:58:23.656Z,2.33
2022-12-06T02:00:49.969Z,1.83
2022-12-06T02:03:19.137Z,2.13
2022-12-06T02:05:45.714Z,2.28
2022-12-06T02:08:13.222Z,2.13
2022-12-06T02:10:39.982Z,2.33
2022-12-06T02:13:06.982Z,2.28
2022-12-06T02:15:36.140Z,1.90
2022-12-06T02:18:08.598Z,2.40
2022-12-06T02:20:41.331Z,2.88
2022-12-06T02:23:10.820Z,2.75
2022-12-06T02:26:01.863Z,2.83
2022-12-06T02:28:37.642Z,2.67
2022-12-06T02:31:06.963Z,2.65
2022-12-06T02:33:36.418Z,2.40
2022-12-06T02:36:15.475Z,3.08
2022-12-06T02:38:57.272Z,2.20
2022-12-06T02:41:35.255Z,2.50
2022-12-06T02:44:04.145Z,2.78
2022-12-06T02:46:32.416Z,2.80
2022-12-06T02:48:59.941Z,2.70
2022-12-06T02:51:27.354Z,3.10
2022-12-06T02:53:56.349Z,2.90
2022-12-06T02:56:23.053Z,3.00
2022-12-06T02:58:49.447Z,2.95
2022-12-06T03:01:22.315Z,2.92
2022-12-06T03:03:54.384Z,3.00
2022-12-06T03:06:23.817Z,2.80
2022-12-06T03:09:22.546Z,2.85
2022-12-06T03:11:55.462Z,2.95
2022-12-06T03:14:23.796Z,2.95
2022-12-06T03:16:54.008Z,3.50
2022-12-06T03:19:21.815Z,3.13
2022-12-06T03:21:53.812Z,3.25
2022-12-06T03:24:21.374Z,3.92
2022-12-06T03:26:48.747Z,3.33
2022-12-06T03:29:16.893Z,3.60
2022-12-06T03:31:44.353Z,3.20
2022-12-06T03:34:13.875Z,3.38
2022-12-06T03:36:41.432Z,3.72
2022-12-06T03:39:08.937Z,2.97
2022-12-06T03:41:48.409Z,3.40
2022-12-06T03:44:14.863Z,3.50
2022-12-06T03:46:43.570Z,3.28
2022-12-06T03:49:31.220Z,3.45
2022-12-06T03:51:57.897Z,3.47
2022-12-06T03:54:24.461Z,3.70
2022-12-06T03:56:50.783Z,3.40
2022-12-06T03:59:17.211Z,3.50
2022-12-06T04:01:43.611Z,3.25
2022-12-06T04:04:10.513Z,3.25
2022-12-06T04:06:37.062Z,3.10
2022-12-06T04:09:24.529Z,3.30
2022-12-06T04:11:51.206Z,3.33
2022-12-06T04:14:17.703Z,3.47
2022-12-06T04:17:02.569Z,3.63
2022-12-06T04:19:28.942Z,3.65
2022-12-06T04:22:13.906Z,3.58
2022-12-06T04:24:40.486Z,4.15
2022-12-06T04:27:25.260Z,3.90
2022-12-06T04:30:10.316Z,4.35
2022-12-06T04:32:55.148Z,4.13
2022-12-06T04:35:40.088Z,4.88
2022-12-06T04:38:24.828Z,4.72
2022-12-06T04:40:51.390Z,4.25
2022-12-06T04:43:36.129Z,4.28
2022-12-06T04:46:02.582Z,4.13
2022-12-06T04:48:28.919Z,4.20
2022-12-06T04:50:55.253Z,4.43
2022-12-06T04:53:21.655Z,4.57
2022-12-06T04:55:48.470Z,4.38
2022-12-06T04:58:14.999Z,4.80
2022-12-06T05:00:44.641Z,5.25
2022-12-06T05:03:11.895Z,4.50
2022-12-06T05:05:38.388Z,4.82
2022-12-06T05:08:04.947Z,5.10
2022-12-06T05:10:31.777Z,5.40
2022-12-06T05:12:58.320Z,4.85
2022-12-06T05:15:29.012Z,4.93
2022-12-06T05:17:55.756Z,4.93
2022-12-06T05:20:22.305Z,5.55
2022-12-06T05:22:48.699Z,5.65
2022-12-06T05:25:16.769Z,5.80
2022-12-06T05:27:43.471Z,6.18
2022-12-06T05:30:10.107Z,6.22
2022-12-06T05:32:37.959Z,5.88
2022-12-06T05:35:06.078Z,5.55
2022-12-06T05:37:32.445Z,6.38
2022-12-06T05:39:59.062Z,6.53
2022-12-06T05:42:26.287Z,6.35
2022-12-06T05:44:52.847Z,6.38
2022-12-06T05:47:19.174Z,5.93
2022-12-06T05:49:45.514Z,6.38
2022-12-06T05:52:12.037Z,6.53
2022-12-06T05:54:38.339Z,6.72
2022-12-06T05:57:04.680Z,6.63
2022-12-06T05:59:31.051Z,6.60
2022-12-06T06:01:57.484Z,6.43
2022-12-06T06:04:23.899Z,6.57
2022-12-06T06:06:51.428Z,6.28
2022-12-06T06:09:19.221Z,6.13
2022-12-06T06:11:45.573Z,6.63
2022-12-06T06:14:11.868Z,6.43
2022-12-06T06:16:38.300Z,6.78
2022-12-06T06:19:04.705Z,7.75
2022-12-06T06:21:31.075Z,6.55
2022-12-06T06:23:57.667Z,7.57
2022-12-06T06:26:23.997Z,6.93
2022-12-06T06:28:50.402Z,6.95
2022-12-06T06:31:16.854Z,6.50
2022-12-06T06:33:43.192Z,6.57
2022-12-06T06:36:09.842Z,6.95
2022-12-06T06:38:36.380Z,6.55
2022-12-06T06:41:03.373Z,6.00
2022-12-06T06:43:30.447Z,6.68
2022-12-06T06:45:58.490Z,6.53
2022-12-06T06:48:25.845Z,6.10
2022-12-06T06:50:57.030Z,5.43
2022-12-06T06:53:26.379Z,7.65
2022-12-06T06:55:53.939Z,6.88
2022-12-06T06:58:20.330Z,6.45
2022-12-06T07:00:46.729Z,6.80
2022-12-06T07:03:15.130Z,6.85
2022-12-06T07:05:43.513Z,6.70
2022-12-06T07:08:10.489Z,7.45
2022-12-06T07:10:36.861Z,7.03
2022-12-06T07:13:03.201Z,5.88
2022-12-06T07:15:29.513Z,5.35
2022-12-06T07:17:55.820Z,4.88
2022-12-06T07:20:22.260Z,5.82
2022-12-06T07:22:48.581Z,6.25
2022-12-06T07:25:15.128Z,6.30
2022-12-06T07:27:41.494Z,5.63
2022-12-06T07:30:08.335Z,5.93
2022-12-06T07:32:36.801Z,5.75
2022-12-06T07:35:03.543Z,6.13
2022-12-06T07:37:30.250Z,4.63
2022-12-06T07:39:56.632Z,5.43
2022-12-06T07:42:41.485Z,5.88
2022-12-06T07:45:08.852Z,6.70
2022-12-06T07:47:36.411Z,6.88
2022-12-06T07:50:03.697Z,7.15
2022-12-06T07:52:30.918Z,7.15
2022-12-06T07:54:57.227Z,6.63
2022-12-06T07:57:23.619Z,7.60
2022-12-06T07:59:49.936Z,8.38
2022-12-06T08:02:21.051Z,8.35
2022-12-06T08:04:47.508Z,8.40
2022-12-06T08:07:14.866Z,8.20
2022-12-06T08:09:41.361Z,7.88
2022-12-06T08:12:08.443Z,8.20
2022-12-06T08:14:35.149Z,7.05
2022-12-06T08:17:01.628Z,8.23
2022-12-06T08:19:27.968Z,8.95
2022-12-06T08:21:54.311Z,8.77
2022-12-06T08:24:20.692Z,7.93
2022-12-06T08:26:47.498Z,8.30
2022-12-06T08:29:14.014Z,8.90
2022-12-06T08:31:40.870Z,9.30
2022-12-06T08:34:07.820Z,9.20
2022-12-06T08:36:34.131Z,9.00
2022-12-06T08:39:00.896Z,9.25
2022-12-06T08:41:45.786Z,9.73
2022-12-06T08:44:12.879Z,9.00
2022-12-06T08:46:39.278Z,8.15
2022-12-06T08:49:05.952Z,8.77
2022-12-06T08:51:35.311Z,8.00
2022-12-06T08:54:02.053Z,8.55
2022-12-06T08:56:28.498Z,8.57
2022-12-06T08:58:55.291Z,8.75
2022-12-06T09:01:37.338Z,8.40
2022-12-06T09:04:05.415Z,9.43
2022-12-06T09:06:32.016Z,9.95
2022-12-06T09:08:58.569Z,9.82
2022-12-06T09:11:25.960Z,9.35
2022-12-06T09:13:52.352Z,9.45
2022-12-06T09:16:20.253Z,9.20
2022-12-06T09:18:47.336Z,9.63
2022-12-06T09:21:15.443Z,9.27
2022-12-06T09:23:41.824Z,9.70
2022-12-06T09:26:08.501Z,9.35
2022-12-06T09:28:35.622Z,9.43
2022-12-06T09:31:02.803Z,9.65
2022-12-06T09:33:29.237Z,9.20
2022-12-06T09:35:55.923Z,9.20
2022-12-06T09:38:24.108Z,8.65
2022-12-06T09:40:56.544Z,8.20
2022-12-06T09:43:35.015Z,8.45
2022-12-06T09:46:01.470Z,8.23
2022-12-06T09:48:53.658Z,8.15
2022-12-06T09:51:46.630Z,8.80
2022-12-06T09:54:33.737Z,9.63
2022-12-06T09:57:08.235Z,9.20
2022-12-06T09:59:40.708Z,6.22
2022-12-06T10:02:16.490Z,9.10
2022-12-06T10:04:45.663Z,8.65
2022-12-06T10:07:12.207Z,8.85
2022-12-06T10:09:38.479Z,8.93
2022-12-06T10:12:19.564Z,7.82
2022-12-06T10:15:08.941Z,8.10
2022-12-06T10:17:41.742Z,7.90
2022-12-06T10:20:10.869Z,7.70
2022-12-06T10:22:56.012Z,7.68
2022-12-06T10:25:25.852Z,6.80
2022-12-06T10:28:06.963Z,8.05
2022-12-06T10:30:34.864Z,8.93
2022-12-06T10:33:12.519Z,8.45
2022-12-06T10:35:50.623Z,8.90
2022-12-06T10:38:19.953Z,9.20
2022-12-06T10:40:51.430Z,9.30
2022-12-06T10:43:28.058Z,9.50
2022-12-06T10:46:33.519Z,9.10
2022-12-06T10:49:18.880Z,9.80
2022-12-06T10:52:08.197Z,9.80
2022-12-06T10:54:34.504Z,9.52
2022-12-06T10:57:04.746Z,10.07
2022-12-06T10:59:44.320Z,9.95
2022-12-06T11:02:29.598Z,10.30
2022-12-06T11:04:58.308Z,9.95
2022-12-06T11:07:25.973Z,10.20
2022-12-06T11:09:53.628Z,9.40
2022-12-06T11:12:36.100Z,10.73
2022-12-06T11:15:21.387Z,11.50
2022-12-06T11:17:50.777Z,8.52
2022-12-06T11:20:17.169Z,11.43
2022-12-06T11:22:53.469Z,11.23
2022-12-06T11:25:19.881Z,11.30
2022-12-06T11:27:54.263Z,11.15
2022-12-06T11:30:21.225Z,10.57
2022-12-06T11:32:49.702Z,10.40
2022-12-06T11:35:18.698Z,11.57
2022-12-06T11:37:45.690Z,10.70
2022-12-06T11:40:41.467Z,10.20
2022-12-06T11:43:09.297Z,10.65
2022-12-06T11:45:38.084Z,9.90
2022-12-06T11:48:13.202Z,10.20
2022-12-06T11:50:41.539Z,10.13
2022-12-06T11:53:15.573Z,10.90
2022-12-06T11:55:47.041Z,10.27
2022-12-06T11:58:32.829Z,10.98
2022-12-06T12:03:28.267Z,10.25
2022-12-06T12:06:06.767Z,10.30
2022-12-06T12:08:33.299Z,10.60
2022-12-06T12:11:01.204Z,10.10
2022-12-06T12:13:48.296Z,10.70
2022-12-06T12:16:23.122Z,9.75
2022-12-06T12:18:51.433Z,6.28
2022-12-06T12:21:27.929Z,9.43
2022-12-06T12:23:54.318Z,9.10
2022-12-06T12:26:21.712Z,9.18
2022-12-06T12:29:06.056Z,9.80
2022-12-06T12:31:35.104Z,9.05
2022-12-06T12:34:18.298Z,9.30
2022-12-06T12:36:49.448Z,9.65
2022-12-06T12:39:23.698Z,9.55
2022-12-06T12:41:50.103Z,9.57
2022-12-06T12:44:37.115Z,9.30
2022-12-06T12:47:06.200Z,8.90
2022-12-06T12:49:33.872Z,8.15
2022-12-06T12:52:01.446Z,9.25
2022-12-06T12:54:31.095Z,8.85
2022-12-06T12:56:58.966Z,8.57
2022-12-06T12:59:26.817Z,8.73
2022-12-06T13:02:01.293Z,8.02
2022-12-06T13:04:36.810Z,8.67
2022-12-06T13:07:07.853Z,9.02
2022-12-06T13:10:06.645Z,8.88
2022-12-06T13:12:41.556Z,9.07
2022-12-06T13:15:11.224Z,8.45
2022-12-06T13:17:38.706Z,8.73
2022-12-06T13:20:18.735Z,7.93
2022-12-06T13:22:47.174Z,8.20
2022-12-06T13:25:13.522Z,8.13
2022-12-06T13:27:41.972Z,7.75
2022-12-06T13:30:15.473Z,7.70
2022-12-06T13:32:53.048Z,7.05
2022-12-06T13:35:30.071Z,7.47
2022-12-06T13:37:57.799Z,6.38
2022-12-06T13:40:33.095Z,6.60
2022-12-06T13:43:03.518Z,6.68
2022-12-06T13:45:41.397Z,6.72
2022-12-06T13:48:26.122Z,7.60
2022-12-06T13:50:54.820Z,7.10
2022-12-06T13:53:22.534Z,7.03
2022-12-06T13:55:53.484Z,8.10
2022-12-06T13:58:26.893Z,7.10
2022-12-06T14:00:54.605Z,7.72
2022-12-06T14:03:20.940Z,7.75
2022-12-06T14:08:23.468Z,8.20
2022-12-06T14:10:49.891Z,7.55
2022-12-06T14:13:17.284Z,7.78
2022-12-06T14:15:48.074Z,8.00
2022-12-06T14:18:18.804Z,8.75
2022-12-06T14:20:47.293Z,7.90
2022-12-06T14:23:24.136Z,8.75
2022-12-06T14:25:50.507Z,8.80
2022-12-06T14:28:18.863Z,8.23
2022-12-06T14:30:46.227Z,8.25
2022-12-06T14:33:22.271Z,8.45
2022-12-06T14:35:50.157Z,8.18
2022-12-06T14:38:27.645Z,8.65
2022-12-06T14:41:12.675Z,8.38
2022-12-06T14:43:40.041Z,8.07
2022-12-06T14:46:07.746Z,7.53
2022-12-06T14:48:53.342Z,7.20
2022-12-06T14:51:23.378Z,8.25
2022-12-06T14:53:50.241Z,7.78
2022-12-06T14:56:22.400Z,7.60
2022-12-06T14:58:48.925Z,7.63
2022-12-06T15:01:19.811Z,8.52
2022-12-06T15:03:56.462Z,7.53
2022-12-06T15:06:24.217Z,8.13
2022-12-06T15:08:56.707Z,7.97
2022-12-06T15:11:41.830Z,7.20
2022-12-06T15:14:17.104Z,7.80
2022-12-06T15:16:45.000Z,6.82
2022-12-06T15:19:12.638Z,7.53
2022-12-06T15:21:39.112Z,7.63
2022-12-06T15:24:14.303Z,7.22
2022-12-06T15:26:40.670Z,7.88
2022-12-06T15:29:07.057Z,8.13
2022-12-06T15:31:33.765Z,8.02
2022-12-06T15:34:00.205Z,7.55
2022-12-06T15:36:31.016Z,7.30
2022-12-06T15:38:57.693Z,7.68
2022-12-06T15:41:25.900Z,7.18
2022-12-06T15:43:53.433Z,8.18
2022-12-06T15:46:21.154Z,7.50
2022-12-06T15:48:47.556Z,7.40
2022-12-06T15:51:20.186Z,7.32
2022-12-06T15:53:47.851Z,7.35
2022-12-06T15:56:15.056Z,6.93
2022-12-06T15:58:45.503Z,6.90
2022-12-06T16:01:16.430Z,6.75
2022-12-06T16:03:42.904Z,7.60
2022-12-06T16:06:13.410Z,7.15
2022-12-06T16:08:40.167Z,7.15
2022-12-06T16:11:13.812Z,7.00
2022-12-06T16:13:40.640Z,6.88
2022-12-06T16:16:07.377Z,7.03
2022-12-06T16:18:33.773Z,6.80
2022-12-06T16:21:00.564Z,7.10
2022-12-06T16:26:34.360Z,7.00
2022-12-06T16:29:01.866Z,7.40
2022-12-06T16:31:28.755Z,6.95
2022-12-06T16:33:55.541Z,8.77
2022-12-06T16:36:23.471Z,7.00
2022-12-06T16:38:54.226Z,5.57
2022-12-06T16:41:20.656Z,5.85
2022-12-06T16:43:47.036Z,5.40
2022-12-06T16:46:25.561Z,4.90
2022-12-06T16:48:55.578Z,5.47
2022-12-06T16:51:22.707Z,5.70
2022-12-06T16:53:49.727Z,5.72
2022-12-06T16:56:16.085Z,5.32
2022-12-06T16:58:42.443Z,5.35
2022-12-06T17:01:41.402Z,4.80
2022-12-06T17:04:11.437Z,5.35
2022-12-06T17:06:37.995Z,5.10
2022-12-06T17:09:04.846Z,5.13
2022-12-06T17:11:51.217Z,5.05
2022-12-06T17:14:18.384Z,4.53
2022-12-06T17:16:45.377Z,4.43
2022-12-06T17:19:18.274Z,4.88
2022-12-06T17:21:45.400Z,4.55
2022-12-06T17:24:11.782Z,4.93
2022-12-06T17:26:38.475Z,6.15
2022-12-06T17:29:04.856Z,5.43
2022-12-06T17:31:31.655Z,5.35
2022-12-06T17:33:58.438Z,5.65
2022-12-06T17:36:25.728Z,5.47
2022-12-06T17:38:52.638Z,4.68
2022-12-06T17:41:39.000Z,4.97
2022-12-06T17:44:05.948Z,5.38
2022-12-06T17:46:32.579Z,4.88
2022-12-06T17:48:59.132Z,4.40
2022-12-06T17:51:26.854Z,5.05
2022-12-06T17:53:53.515Z,4.82
2022-12-06T17:56:28.895Z,4.72
2022-12-06T18:01:22.205Z,4.55
2022-12-06T18:03:52.265Z,4.65
2022-12-06T18:06:19.924Z,4.88
2022-12-06T18:08:46.496Z,4.60
2022-12-06T18:11:12.970Z,5.45
2022-12-06T18:13:39.292Z,5.43
2022-12-06T18:16:16.385Z,5.75
2022-12-06T18:18:43.426Z,5.32
2022-12-06T18:21:10.744Z,5.60
2022-12-06T18:23:40.952Z,5.70
2022-12-06T18:26:15.323Z,5.93
2022-12-06T18:28:45.650Z,4.90
2022-12-06T18:31:12.536Z,5.35
2022-12-06T18:33:40.136Z,4.95
2022-12-06T18:36:06.710Z,5.05
2022-12-06T18:38:33.098Z,5.55
2022-12-06T18:41:09.869Z,5.40
2022-12-06T18:43:36.451Z,5.32
2022-12-06T18:46:04.971Z,5.50
2022-12-06T18:48:31.985Z,5.30
2022-12-06T18:50:58.400Z,4.80
2022-12-06T18:53:25.012Z,5.85
2022-12-06T18:55:51.366Z,5.80
2022-12-06T18:58:17.745Z,5.93
2022-12-06T19:00:45.375Z,6.47
2022-12-06T19:03:12.404Z,5.80
2022-12-06T19:06:01.865Z,6.47
2022-12-06T19:08:25.370Z,7.32
2022-12-06T19:10:51.772Z,6.78
2022-12-06T19:13:18.172Z,7.13
2022-12-06T19:15:44.499Z,6.75
2022-12-06T19:18:13.452Z,7.07
2022-12-06T19:20:39.823Z,7.47
2022-12-06T19:23:06.162Z,7.35
2022-12-06T19:25:32.462Z,7.50
2022-12-06T19:27:58.801Z,7.47
2022-12-06T19:30:25.165Z,8.27
2022-12-06T19:32:51.493Z,7.72
2022-12-06T19:35:17.866Z,7.78
2022-12-06T19:37:44.186Z,7.68
2022-12-06T19:40:11.182Z,7.63
2022-12-06T19:42:55.839Z,7.82
2022-12-06T19:45:23.711Z,8.70
2022-12-06T19:47:50.065Z,8.10
2022-12-06T19:50:16.609Z,8.85
2022-12-06T19:52:42.954Z,8.13
2022-12-06T19:55:09.373Z,7.80
2022-12-06T19:57:35.883Z,7.93
2022-12-06T20:00:02.620Z,7.93
2022-12-06T20:02:29.258Z,7.95
2022-12-06T20:04:55.659Z,8.32
2022-12-06T20:07:22.051Z,7.50
2022-12-06T20:09:48.455Z,7.60
2022-12-06T20:12:14.867Z,7.53
2022-12-06T20:14:45.639Z,6.60
2022-12-06T20:17:15.332Z,7.28
2022-12-06T20:19:43.231Z,6.75
2022-12-06T20:22:10.247Z,6.28
2022-12-06T20:24:36.658Z,6.10
2022-12-06T20:27:03.164Z,5.57
2022-12-06T20:29:30.391Z,5.78
2022-12-06T20:32:00.179Z,6.03
2022-12-06T20:34:29.320Z,5.88
2022-12-06T20:36:56.270Z,5.90
2022-12-06T20:39:23.919Z,5.75
2022-12-06T20:41:50.639Z,5.85
2022-12-06T20:44:17.508Z,5.32
2022-12-06T20:46:44.235Z,5.32
2022-12-06T20:49:10.685Z,5.28
2022-12-06T20:51:37.019Z,5.50
2022-12-06T20:54:04.518Z,5.55
2022-12-06T20:56:32.378Z,5.88
2022-12-06T20:58:59.460Z,5.72
2022-12-06T21:01:27.177Z,6.10
2022-12-06T21:03:54.501Z,5.82
2022-12-06T21:06:21.567Z,6.00
2022-12-06T21:08:47.989Z,6.25
2022-12-06T21:11:22.519Z,6.32
2022-12-06T21:13:50.514Z,5.88
2022-12-06T21:16:18.692Z,7.00
2022-12-06T21:18:46.469Z,7.43
2022-12-06T21:21:21.468Z,7.30
2022-12-06T21:23:47.849Z,7.55
2022-12-06T21:26:14.193Z,6.63
2022-12-06T21:28:40.586Z,6.95
2022-12-06T21:31:06.980Z,6.97
2022-12-06T21:33:33.357Z,6.28
2022-12-06T21:36:06.098Z,6.03
2022-12-06T21:38:35.021Z,5.68
2022-12-06T21:41:05.129Z,5.68
2022-12-06T21:43:31.571Z,6.00
2022-12-06T21:46:02.242Z,6.90
2022-12-06T21:48:28.597Z,7.03
2022-12-06T21:51:01.784Z,7.80
2022-12-06T21:53:28.253Z,8.73
2022-12-06T21:55:54.607Z,8.68
2022-12-06T21:58:20.962Z,9.25
2022-12-06T22:00:47.292Z,10.30
2022-12-06T22:03:16.365Z,10.35
2022-12-06T22:05:47.491Z,10.05
2022-12-06T22:08:14.029Z,11.20
2022-12-06T22:10:41.422Z,12.75
2022-12-06T22:13:07.878Z,12.25
2022-12-06T22:15:34.230Z,13.30
2022-12-06T22:18:00.577Z,12.43
2022-12-06T22:20:26.975Z,13.77
2022-12-06T22:22:53.499Z,13.63
2022-12-06T22:25:19.935Z,13.95
2022-12-06T22:27:46.273Z,13.68
2022-12-06T22:30:13.900Z,14.05
2022-12-06T22:32:40.201Z,13.80
2022-12-06T22:35:06.871Z,13.75
2022-12-06T22:37:33.208Z,12.73
2022-12-06T22:39:59.894Z,14.05
2022-12-06T22:42:26.640Z,13.75
2022-12-06T22:44:53.046Z,14.18
2022-12-06T22:47:19.432Z,13.77
2022-12-06T22:49:45.836Z,14.50
2022-12-06T22:52:12.222Z,14.60
2022-12-06T22:54:38.524Z,14.05
2022-12-06T22:57:04.883Z,13.60
2022-12-06T22:59:31.194Z,13.65
2022-12-06T23:01:57.637Z,14.05
2022-12-06T23:04:24.088Z,14.25
2022-12-06T23:06:51.004Z,13.20
2022-12-06T23:09:17.506Z,14.10
2022-12-06T23:11:43.993Z,13.10
2022-12-06T23:14:11.135Z,13.77
2022-12-06T23:16:37.706Z,12.65
2022-12-06T23:19:04.690Z,12.10
2022-12-06T23:21:32.150Z,12.18
2022-12-06T23:24:02.460Z,12.23
2022-12-06T23:26:36.543Z,10.98
2022-12-06T23:29:03.388Z,10.40
2022-12-06T23:31:33.012Z,11.10
2022-12-06T23:34:14.633Z,11.25
2022-12-06T23:36:41.410Z,10.23
2022-12-06T23:39:07.810Z,11.15
2022-12-06T23:41:34.415Z,11.75
2022-12-06T23:44:00.955Z,12.38
2022-12-06T23:46:28.751Z,13.05
2022-12-06T23:48:55.487Z,13.65
2022-12-06T23:51:23.532Z,13.65
2022-12-06T23:53:51.137Z,14.07
2022-12-06T23:56:18.734Z,14.23
2022-12-06T23:58:45.211Z,13.52
